Time;durP1;ratioP1;P1;durP2;ratioP2;P2;SDS_P1;SDS_P2;PMS_P1;PMS_P2;Temp;Humidity;BMP_temperature;BMP_pressure;BME280_temperature;BME280_humidity;BME280_pressure;Samples;Min_cycle;Max_cycle;Signal;HPM_P1;HPM_P2
2021/10/02 00:34:21;;;;;;;37.83;29.50;;;;;;;7.32;65.00;101831.55;1741720;80;20978;-90
2021/10/02 00:37:04;;;;;;;40.80;28.57;;;;;;;7.24;65.20;101838.83;1707214;81;21067;-89
2021/10/02 00:44:43;;;;;;;34.70;27.10;;;;;;;7.24;65.35;101827.39;1719324;81;21150;-91
2021/10/02 00:47:18;;;;;;;37.10;26.60;;;;;;;7.21;65.44;101821.38;1724424;81;21157;-92
2021/10/02 00:50:00;;;;;;;36.57;27.17;;;;;;;7.20;65.46;101819.68;1730650;81;20948;-91
2021/10/02 00:52:28;;;;;;;40.27;28.87;;;;;;;7.21;65.41;101824.03;1724666;81;21009;-90
2021/10/02 00:54:58;;;;;;;38.97;29.83;;;;;;;7.20;65.38;101821.50;1726017;81;20996;-91
2021/10/02 00:57:29;;;;;;;36.33;28.83;;;;;;;7.16;65.70;101814.78;1712037;82;20956;-91
2021/10/02 01:00:08;;;;;;;41.07;30.87;;;;;;;7.04;65.86;101822.42;1734597;81;20999;-90
2021/10/02 01:02:52;;;;;;;40.30;28.20;;;;;;;6.88;66.27;101817.58;1730748;81;21063;-90
2021/10/02 01:06:05;;;;;;;39.23;29.40;;;;;;;6.83;66.60;101813.97;1695577;81;84298;-58
2021/10/02 01:08:52;;;;;;;39.93;27.50;;;;;;;6.83;66.70;101816.13;1687200;83;21044;-58
2021/10/02 01:11:32;;;;;;;36.57;25.63;;;;;;;6.74;67.04;101823.55;1687172;83;21054;-60
2021/10/02 01:14:12;;;;;;;39.10;26.10;;;;;;;6.72;67.48;101821.97;1691331;83;21018;-58
2021/10/02 01:16:44;;;;;;;32.43;24.27;;;;;;;6.75;67.61;101825.20;1689666;83;21105;-58
2021/10/02 01:19:38;;;;;;;33.73;24.63;;;;;;;6.80;67.75;101819.55;1671725;83;20995;-58
2021/10/02 01:22:31;;;;;;;36.20;24.87;;;;;;;6.87;67.67;101817.20;1694171;83;21053;-57
2021/10/02 01:25:15;;;;;;;32.50;26.30;;;;;;;6.89;67.51;101820.08;1703691;83;21021;-62
2021/10/02 01:28:06;;;;;;;36.87;26.50;;;;;;;6.97;67.31;101815.48;1691070;83;21064;-58
2021/10/02 01:33:57;;;;;;;40.47;27.60;;;;;;;7.11;66.72;101817.80;1684909;82;21459;-58
2021/10/02 01:36:31;;;;;;;35.93;27.43;;;;;;;7.06;66.72;101814.69;1706557;83;21131;-58
2021/10/02 01:48:16;;;;;;;39.90;27.87;;;;;;;6.65;67.83;101813.70;1678931;84;21037;-58
2021/10/02 01:50:45;;;;;;;41.00;28.73;;;;;;;6.72;67.81;101810.88;1672385;84;21048;-60
2021/10/02 01:53:14;;;;;;;37.87;27.73;;;;;;;6.73;67.87;101812.58;1668809;84;21104;-59
2021/10/02 01:55:42;;;;;;;37.63;27.30;;;;;;;6.69;67.97;101815.12;1672545;84;21033;-57
2021/10/02 01:58:13;;;;;;;35.43;27.93;;;;;;;6.62;68.01;101809.97;1700016;83;20985;-58
2021/10/02 02:00:47;;;;;;;39.60;28.50;;;;;;;6.63;68.12;101813.82;1690874;83;21015;-57
2021/10/02 02:03:18;;;;;;;38.10;27.93;;;;;;;6.60;68.28;101814.06;1655689;85;21103;-58
2021/10/02 02:05:47;;;;;;;37.50;28.53;;;;;;;6.58;68.34;101820.47;1657018;85;21012;-58
2021/10/02 02:08:18;;;;;;;37.67;27.80;;;;;;;6.61;68.32;101821.52;1649525;85;21491;-59
2021/10/02 02:10:47;;;;;;;41.57;30.40;;;;;;;6.69;68.14;101827.05;1669274;84;21087;-58
2021/10/02 02:13:14;;;;;;;38.63;29.27;;;;;;;6.70;68.12;101823.41;1698573;83;21001;-57
2021/10/02 03:02:23;;;;;;;;;;;;;;;;;;;;;
2021/10/02 03:05:03;;;;;;;34.67;25.80;;;;;;;6.38;69.31;101807.52;1682904;84;21049;-88
2021/10/02 03:07:44;;;;;;;32.00;25.10;;;;;;;6.32;69.31;101803.55;1673594;84;21090;-87
2021/10/02 03:10:14;;;;;;;33.00;25.57;;;;;;;6.31;69.26;101807.64;1697513;83;21584;-88
2021/10/02 03:12:49;;;;;;;35.23;26.10;;;;;;;6.28;69.24;101800.80;1663583;82;21018;31
2021/10/02 03:15:17;;;;;;;29.40;25.93;;;;;;;6.27;69.25;101800.43;1670645;84;21509;-58
2021/10/02 03:17:47;;;;;;;33.90;25.93;;;;;;;6.24;69.23;101797.56;1669199;84;21088;-60
2021/10/02 03:20:16;;;;;;;34.63;24.03;;;;;;;6.27;69.16;101798.27;1663734;84;21511;-59
2021/10/02 03:22:43;;;;;;;29.57;24.77;;;;;;;6.34;68.97;101788.38;1665195;82;21051;-60
2021/10/02 03:25:11;;;;;;;36.83;26.07;;;;;;;6.41;68.85;101795.36;1642491;85;21021;-60
2021/10/02 03:27:40;;;;;;;35.77;27.13;;;;;;;6.43;68.78;101786.80;1643752;85;21048;-59
2021/10/02 03:30:10;;;;;;;31.17;24.80;;;;;;;6.40;68.81;101794.98;1638927;85;21042;-59
2021/10/02 03:32:36;;;;;;;35.50;26.90;;;;;;;6.37;68.79;101785.49;1641367;86;21074;-59
2021/10/02 03:35:05;;;;;;;30.13;25.13;;;;;;;6.35;68.80;101791.40;1640327;84;21093;-58
2021/10/02 03:37:31;;;;;;;35.67;25.40;;;;;;;6.31;68.82;101786.46;1671667;84;21477;-59
2021/10/02 03:39:59;;;;;;;30.07;25.17;;;;;;;6.26;69.22;101787.34;1666845;84;21071;-59
2021/10/02 03:42:25;;;;;;;30.20;24.02;;;;;;;6.19;69.19;101785.66;1672385;84;21127;-59
2021/10/02 03:44:53;;;;;;;33.63;24.17;;;;;;;6.21;69.22;101786.37;1668227;84;21184;-59
2021/10/02 03:47:22;;;;;;;31.10;24.97;;;;;;;6.23;69.28;101783.98;1663780;85;21130;-60
2021/10/02 03:49:50;;;;;;;39.47;27.87;;;;;;;6.21;69.42;101792.50;1661931;85;21052;-59
2021/10/02 03:52:17;;;;;;;33.85;27.17;;;;;;;6.18;69.50;101787.97;1670735;85;22301;-59
2021/10/02 03:54:43;;;;;;;34.70;25.37;;;;;;;6.16;69.63;101789.87;1662256;85;21317;-59
2021/10/02 03:57:09;;;;;;;32.00;25.10;;;;;;;6.14;69.75;101795.77;1632845;84;21571;-60
2021/10/02 03:59:36;;;;;;;31.30;23.12;;;;;;;6.10;69.74;101791.69;1628406;86;21038;-60
2021/10/02 04:02:03;;;;;;;27.65;21.97;;;;;;;6.09;69.81;101792.67;1630701;86;21062;-60
2021/10/02 04:04:29;;;;;;;31.93;24.17;;;;;;;6.13;69.79;101787.48;1631306;86;21102;-60
2021/10/02 04:06:56;;;;;;;32.23;22.07;;;;;;;6.16;69.76;101794.70;1628235;86;21061;-61
2021/10/02 04:09:24;;;;;;;32.30;25.00;;;;;;;6.18;69.84;101794.58;1629714;86;21038;-60
2021/10/02 04:11:50;;;;;;;33.10;24.13;;;;;;;6.16;69.93;101792.05;1613176;85;21292;-60
2021/10/02 04:14:17;;;;;;;36.33;26.37;;;;;;;6.17;69.99;101797.69;1556671;91;22218;-60
2021/10/02 04:16:44;;;;;;;28.73;24.10;;;;;;;6.21;69.90;101795.64;1552171;90;21434;-62
2021/10/02 04:19:12;;;;;;;30.02;24.32;;;;;;;6.16;69.83;101784.11;1587635;88;21123;-61
2021/10/02 04:21:39;;;;;;;28.00;23.03;;;;;;;6.24;69.90;101792.27;1561406;90;21557;-60
2021/10/02 04:24:06;;;;;;;29.23;21.63;;;;;;;6.41;69.93;101789.56;1581614;89;21046;-64
2021/10/02 04:26:33;;;;;;;28.37;20.37;;;;;;;6.81;69.41;101796.03;1587018;89;21062;-61
2021/10/02 04:29:00;;;;;;;43.35;24.50;;;;;;;7.24;68.05;101785.78;1588568;89;21066;-59
2021/10/02 04:31:27;;;;;;;27.77;23.57;;;;;;;7.64;67.00;101788.97;1587214;89;21054;-63
2021/10/02 04:33:53;;;;;;;33.90;23.77;;;;;;;8.03;66.28;101788.28;1588449;89;21110;-60
2021/10/02 04:36:19;;;;;;;35.05;24.35;;;;;;;8.45;65.08;101786.26;1587356;89;21050;-61
2021/10/02 04:38:46;;;;;;;28.90;23.50;;;;;;;8.84;63.15;101782.28;1585848;89;21061;-60
2021/10/02 04:41:12;;;;;;;30.15;23.57;;;;;;;9.21;61.77;101784.66;1584067;89;21181;-61
2021/10/02 04:43:44;;;;;;;27.67;21.53;;;;;;;9.51;60.45;101781.78;1584416;89;21058;-61
2021/10/02 04:46:15;;;;;;;28.27;22.97;;;;;;;9.79;59.06;101783.61;1622065;87;21062;-61
2021/10/02 04:48:42;;;;;;;28.97;21.83;;;;;;;10.11;57.95;101785.34;1656330;85;21142;-63
2021/10/02 04:51:11;;;;;;;31.77;22.57;;;;;;;10.43;57.48;101785.84;1610772;88;21538;-60
2021/10/02 04:53:38;;;;;;;22.50;20.13;;;;;;;10.84;56.32;101787.53;1609323;88;21009;-62
2021/10/02 04:56:08;;;;;;;28.62;21.55;;;;;;;11.21;54.86;101778.47;1610199;88;21113;-63
2021/10/02 04:58:36;;;;;;;26.33;21.20;;;;;;;11.56;53.76;101776.65;1614606;87;20987;-62
2021/10/02 05:01:06;;;;;;;24.57;20.40;;;;;;;11.94;52.80;101783.37;1612624;87;21102;-62
2021/10/02 05:03:34;;;;;;;28.25;22.00;;;;;;;12.31;51.34;101782.61;1656906;86;21574;-64
2021/10/02 05:06:02;;;;;;;23.73;20.92;;;;;;;12.60;50.72;101778.12;1637449;85;21072;-63
2021/10/02 05:08:35;;;;;;;25.80;20.97;;;;;;;12.89;49.56;101785.66;1654461;86;21637;-62
2021/10/02 05:11:05;;;;;;;30.95;21.73;;;;;;;13.17;48.60;101785.30;1587281;89;21129;-64
2021/10/02 05:13:32;;;;;;;28.70;22.80;;;;;;;13.39;48.29;101783.28;1658198;85;21055;-64
2021/10/02 05:16:01;;;;;;;31.15;22.20;;;;;;;13.52;47.77;101781.89;1659089;85;21117;-64
2021/10/02 05:18:29;;;;;;;25.90;23.12;;;;;;;13.58;47.15;101782.53;1658315;86;21100;-64
2021/10/02 05:20:57;;;;;;;30.30;24.60;;;;;;;13.58;46.79;101780.70;1658734;85;21642;-63
2021/10/02 05:23:23;;;;;;;23.92;21.27;;;;;;;13.60;46.72;101785.90;1654689;85;21083;-63
2021/10/02 05:25:52;;;;;;;24.82;20.43;;;;;;;13.64;46.30;101781.86;1659229;86;21039;-65
2021/10/02 05:28:18;;;;;;;28.60;22.15;;;;;;;13.67;46.36;101785.52;1656339;85;21027;-66
2021/10/02 05:30:44;;;;;;;27.13;22.17;;;;;;;13.68;46.43;101787.71;1653249;85;20997;-68
2021/10/02 05:33:10;;;;;;;23.25;20.77;;;;;;;13.74;46.12;101791.86;1650988;86;21569;-68
2021/10/02 05:35:37;;;;;;;28.67;21.07;;;;;;;13.85;46.22;101792.50;1652636;85;21526;-68
2021/10/02 05:38:03;;;;;;;;;;;;;;;13.94;45.58;101778.05;1654865;85;21543;-69
2021/10/02 05:40:30;;;;;;;;;;;;;;;14.27;45.16;101794.77;1647941;86;20177;-68
2021/10/02 05:42:58;;;;;;;27.67;20.62;;;;;;;14.38;44.81;101789.00;1650611;85;20491;-67
2021/10/02 05:45:24;;;;;;;23.22;18.82;;;;;;;14.56;44.77;101792.74;1657432;85;21050;-66
2021/10/02 05:47:52;;;;;;;27.10;19.62;;;;;;;14.92;44.60;101789.46;1658629;86;21020;-66
2021/10/02 05:50:18;;;;;;;25.43;20.85;;;;;;;15.29;43.71;101791.77;1667751;85;21084;-67
2021/10/02 05:52:44;;;;;;;22.98;19.12;;;;;;;15.52;42.82;101793.54;1651311;85;21103;-68
2021/10/02 05:55:11;;;;;;;23.35;18.15;;;;;;;15.62;42.23;101793.28;1650773;86;21069;-68
2021/10/02 05:57:37;;;;;;;21.05;18.05;;;;;;;15.50;41.64;101791.55;1646262;86;21620;-68
2021/10/02 06:00:07;;;;;;;22.20;18.42;;;;;;;15.30;42.20;101792.63;1658532;85;21001;-68
2021/10/02 06:02:35;;;;;;;21.82;17.92;;;;;;;15.19;43.09;101800.09;1649888;86;21067;-67
2021/10/02 06:05:04;;;;;;;20.92;18.73;;;;;;;15.44;42.68;101796.33;1650362;85;21083;-67
2021/10/02 06:07:30;;;;;;;19.40;17.17;;;;;;;15.84;42.26;101800.92;1644874;86;21151;-67
2021/10/02 06:09:56;;;;;;;23.10;18.50;;;;;;;16.20;41.35;101795.58;1656986;85;21131;-67
2021/10/02 06:12:24;;;;;;;21.68;18.45;;;;;;;16.54;40.93;101796.24;1658265;85;21059;-68
2021/10/02 06:14:54;;;;;;;25.30;17.05;;;;;;;16.87;40.60;101799.77;1657293;86;21079;-66
2021/10/02 06:17:20;;;;;;;19.85;17.73;;;;;;;16.63;39.47;101797.45;1661346;85;21106;-67
2021/10/02 06:19:46;;;;;;;21.35;18.62;;;;;;;15.85;41.24;101804.77;1658163;85;21121;-66
2021/10/02 06:22:12;;;;;;;26.68;20.43;;;;;;;15.15;42.44;101803.34;1658336;86;21075;-66
2021/10/02 06:24:39;;;;;;;36.58;23.67;;;;;;;14.53;44.18;101805.68;1660901;85;21036;-64
2021/10/02 06:27:05;;;;;;;26.42;21.17;;;;;;;13.97;45.18;101809.34;1652453;85;21076;-64
2021/10/02 06:29:33;;;;;;;27.20;20.82;;;;;;;13.51;46.71;101806.51;1657148;85;21123;-64
2021/10/02 06:31:59;;;;;;;27.48;20.77;;;;;;;13.12;47.41;101807.72;1658515;85;21004;-63
2021/10/02 06:34:25;;;;;;;25.95;19.57;;;;;;;12.75;49.04;101811.27;1657584;85;21028;-66
2021/10/02 06:36:52;;;;;;;30.80;21.12;;;;;;;12.40;49.66;101808.38;1660651;85;21043;-64
2021/10/02 06:39:18;;;;;;;26.27;21.48;;;;;;;12.06;50.78;101809.28;1652074;85;21098;-63
2021/10/02 06:41:46;;;;;;;27.65;20.55;;;;;;;11.72;51.65;101808.78;1658166;86;21028;-65
2021/10/02 06:44:12;;;;;;;32.50;20.65;;;;;;;11.54;52.66;101812.02;1641498;85;21511;-65
2021/10/02 06:46:39;;;;;;;31.35;20.08;;;;;;;11.48;53.53;101808.98;1645604;85;21028;-65
2021/10/02 06:49:06;;;;;;;34.30;21.90;;;;;;;11.07;53.57;101765.19;1652364;85;21167;-67
2021/10/02 06:51:32;;;;;;;29.10;21.60;;;;;;;11.25;54.03;101818.53;1661255;86;20990;-65
2021/10/02 06:53:58;;;;;;;30.52;20.05;;;;;;;11.16;54.79;101818.12;1656632;85;21075;-66
2021/10/02 06:56:24;;;;;;;30.55;19.67;;;;;;;11.19;55.10;101824.00;1653578;86;21026;-65
2021/10/02 06:58:50;;;;;;;24.87;19.12;;;;;;;11.25;55.02;101814.53;1655182;85;21095;-66
2021/10/02 07:01:16;;;;;;;;;;;;;;;11.29;55.20;101814.55;1647520;85;21105;-64
2021/10/02 07:03:43;;;;;;;37.95;21.25;;;;;;;11.29;55.26;101815.88;1644377;86;20163;-65
2021/10/02 07:06:10;;;;;;;34.95;21.48;;;;;;;11.19;55.87;101812.46;1599202;88;21021;-65
2021/10/02 07:08:36;;;;;;;27.17;22.22;;;;;;;11.21;55.92;101809.16;1634603;86;21327;-65
2021/10/02 07:11:04;;;;;;;29.80;22.05;;;;;;;11.30;56.04;101812.20;1636211;86;21116;-66
2021/10/02 07:13:30;;;;;;;43.10;23.45;;;;;;;11.35;56.00;101808.58;1641219;86;21052;-65
2021/10/02 07:15:58;;;;;;;57.27;27.58;;;;;;;11.41;56.59;101809.27;1603049;88;21075;-65
2021/10/02 07:18:24;;;;;;;54.20;28.00;;;;;;;11.49;55.98;101810.67;1606799;87;21125;-64
2021/10/02 07:20:52;;;;;;;85.53;34.92;;;;;;;11.61;55.95;101805.06;1617727;87;21030;-65
2021/10/02 07:23:20;;;;;;;101.55;37.35;;;;;;;11.76;56.29;101807.47;1597511;88;21018;-64
2021/10/02 07:25:48;;;;;;;56.18;27.52;;;;;;;11.94;55.77;101802.55;1615100;87;21574;-65
2021/10/02 07:28:14;;;;;;;44.65;24.85;;;;;;;12.03;54.96;101800.24;1619809;87;21030;-66
2021/10/02 07:30:40;;;;;;;40.38;23.00;;;;;;;12.02;54.94;101799.92;1624174;87;21109;-66
2021/10/02 07:33:07;;;;;;;33.23;22.37;;;;;;;12.02;55.38;101802.59;1618427;85;21477;-65
2021/10/02 07:35:34;;;;;;;31.52;19.87;;;;;;;12.07;55.27;101802.45;1626121;87;21528;-65
2021/10/02 07:38:02;;;;;;;34.80;22.13;;;;;;;12.13;54.86;101797.43;1625265;87;21307;-66
2021/10/02 07:40:29;;;;;;;30.55;21.12;;;;;;;12.19;54.81;101797.62;1609852;88;21001;-65
2021/10/02 07:42:59;;;;;;;23.62;17.75;;;;;;;12.27;54.83;101790.95;1646278;86;21038;-66
2021/10/02 07:45:26;;;;;;;29.60;20.25;;;;;;;12.39;54.62;101794.66;1657669;85;21031;-65
2021/10/02 07:47:56;;;;;;;25.68;20.75;;;;;;;12.51;54.17;101792.01;1633485;85;21550;-66
2021/10/02 07:50:23;;;;;;;49.77;21.25;;;;;;;12.63;53.82;101796.02;1663658;85;21598;-67
2021/10/02 07:52:56;;;;;;;35.25;20.37;;;;;;;12.68;53.27;101796.88;1661346;85;21102;-66
2021/10/02 07:55:25;;;;;;;34.88;20.72;;;;;;;12.72;53.67;101794.70;1664341;83;20976;-66
2021/10/02 07:57:51;;;;;;;24.27;17.37;;;;;;;12.82;53.48;101797.52;1671582;85;21134;-66
2021/10/02 08:00:21;;;;;;;28.90;19.23;;;;;;;12.94;53.06;101790.50;1663680;83;21529;-66
2021/10/02 08:02:55;;;;;;;31.48;19.00;;;;;;;13.07;53.01;101792.66;1633793;87;21077;-66
2021/10/02 08:05:22;;;;;;;65.75;26.65;;;;;;;13.19;52.73;101788.64;1661390;85;21036;-66
2021/10/02 08:07:50;;;;;;;112.47;35.20;;;;;;;13.29;52.62;101789.28;1663166;85;21023;-66
2021/10/02 08:10:21;;;;;;;91.20;31.93;;;;;;;13.35;51.35;101788.63;1663191;85;21083;-66
2021/10/02 08:12:48;;;;;;;95.85;30.70;;;;;;;13.42;51.52;101786.11;1672905;85;21058;-66
2021/10/02 08:15:19;;;;;;;81.00;24.90;;;;;;;13.50;51.69;101785.24;1665506;84;21171;-66
2021/10/02 08:17:45;;;;;;;83.30;29.70;;;;;;;13.63;51.28;101784.20;1666536;85;21003;-66
2021/10/02 08:20:16;;;;;;;61.55;21.15;;;;;;;13.76;51.03;101776.44;1630463;87;21014;-65
2021/10/02 08:22:49;;;;;;;90.03;27.13;;;;;;;13.90;50.67;101774.02;1663948;85;21604;-66
2021/10/02 08:25:18;;;;;;;72.05;22.10;;;;;;;14.00;49.49;101777.34;1664495;85;21112;-65
2021/10/02 08:27:47;;;;;;;69.37;23.57;;;;;;;14.04;49.06;101771.95;1664474;85;22310;-66
2021/10/02 08:30:18;;;;;;;78.75;25.00;;;;;;;14.08;48.45;101775.95;1663845;85;21044;-66
2021/10/02 08:32:46;;;;;;;70.45;25.05;;;;;;;14.12;48.43;101777.77;1663699;85;21098;-66
2021/10/02 08:35:13;;;;;;;60.17;18.90;;;;;;;14.16;48.74;101778.56;1648497;85;21023;-66
2021/10/02 08:37:41;;;;;;;53.35;17.32;;;;;;;14.26;48.56;101778.84;1668393;85;21110;-66
2021/10/02 08:40:13;;;;;;;48.35;15.95;;;;;;;14.37;47.80;101775.76;1661984;85;21355;-67
2021/10/02 08:42:41;;;;;;;51.63;18.30;;;;;;;14.51;47.76;101776.85;1676779;85;21027;-66
2021/10/02 08:45:10;;;;;;;34.88;11.50;;;;;;;14.59;46.56;101774.95;1667098;84;21034;-67
2021/10/02 08:47:41;;;;;;;27.85;11.22;;;;;;;14.65;46.50;101763.19;1662362;85;21027;-65
2021/10/02 08:50:11;;;;;;;24.40;11.50;;;;;;;14.69;45.64;101766.69;1664901;85;21047;-66
2021/10/02 08:52:40;;;;;;;39.40;12.95;;;;;;;14.76;45.39;101761.41;1665391;85;21569;-67
2021/10/02 08:55:09;;;;;;;38.35;14.65;;;;;;;14.78;45.72;101757.52;1665677;84;21040;-65
2021/10/02 08:57:38;;;;;;;15.85;7.97;;;;;;;14.84;45.69;101763.19;1662065;85;21084;-66
2021/10/02 09:00:11;;;;;;;28.00;8.53;;;;;;;14.88;44.98;101753.27;1664559;85;21087;-66
2021/10/02 09:02:38;;;;;;;21.42;10.10;;;;;;;14.93;45.23;101758.89;1663995;85;21507;-66
2021/10/02 09:05:10;;;;;;;23.10;11.53;;;;;;;15.02;45.63;101757.49;1663834;85;21126;-66
2021/10/02 09:07:36;;;;;;;21.25;10.45;;;;;;;15.15;45.67;101759.03;1666162;85;21125;-66
2021/10/02 09:10:07;;;;;;;28.55;10.55;;;;;;;15.24;45.38;101749.02;1664647;85;21070;-67
2021/10/02 09:12:36;;;;;;;17.35;8.70;;;;;;;15.30;45.19;101750.98;1665234;85;21382;-65
2021/10/02 09:15:03;;;;;;;13.08;8.45;;;;;;;15.32;45.15;101747.09;1666674;85;21051;-66
2021/10/02 09:17:31;;;;;;;13.00;8.38;;;;;;;15.30;44.74;101750.47;1665198;85;21103;-66
2021/10/02 09:19:59;;;;;;;12.75;6.87;;;;;;;15.28;45.15;101746.31;1665563;85;21543;-65
2021/10/02 09:22:27;;;;;;;12.23;8.40;;;;;;;15.35;45.06;101748.07;1664346;85;21004;-68
2021/10/02 09:25:00;;;;;;;10.68;6.87;;;;;;;15.41;44.33;101743.81;1664063;85;21119;-67
2021/10/02 09:27:29;;;;;;;10.35;7.05;;;;;;;15.43;43.73;101741.77;1665880;85;21079;-66
2021/10/02 09:30:06;;;;;;;17.35;8.50;;;;;;;15.41;43.83;101741.13;1666754;85;21004;-66
2021/10/02 09:32:44;;;;;;;6.62;5.90;;;;;;;15.44;43.62;101742.59;1666786;84;21042;-67
2021/10/02 09:35:15;;;;;;;10.58;6.62;;;;;;;15.47;43.29;101736.86;1657880;85;21122;-67
2021/10/02 09:37:44;;;;;;;11.35;6.35;;;;;;;15.48;42.99;101731.30;1668015;85;21082;-65
2021/10/02 09:40:18;;;;;;;20.10;7.62;;;;;;;15.49;42.76;101724.06;1661575;85;21008;-67
2021/10/02 09:42:56;;;;;;;16.52;7.60;;;;;;;15.35;42.85;101732.44;1665699;85;21229;-66
2021/10/02 09:45:35;;;;;;;30.65;10.25;;;;;;;15.25;43.10;101727.35;1663492;84;21035;-64
2021/10/02 09:48:05;;;;;;;7.78;5.37;;;;;;;15.26;42.59;101727.69;1674221;85;21042;-66
2021/10/02 09:50:42;;;;;;;13.35;4.90;;;;;;;15.26;41.66;101738.44;1648559;86;21095;-66
2021/10/02 09:53:11;;;;;;;4.72;4.25;;;;;;;15.19;41.99;101725.41;1663686;85;21051;-66
2021/10/02 09:55:41;;;;;;;5.40;4.45;;;;;;;15.20;42.24;101725.75;1663932;84;21031;-71
2021/10/02 09:58:11;;;;;;;18.60;7.25;;;;;;;15.21;42.24;101732.77;1658430;85;21036;-66
2021/10/02 10:00:46;;;;;;;16.65;7.12;;;;;;;15.25;42.14;101709.89;1662428;85;21047;-66
2021/10/02 10:03:16;;;;;;;10.63;5.83;;;;;;;15.31;42.02;101705.14;1663213;85;22166;-64
2021/10/02 10:05:46;;;;;;;11.53;5.80;;;;;;;15.31;42.23;101699.77;1662844;85;21052;-66
2021/10/02 10:08:28;;;;;;;6.47;5.35;;;;;;;15.32;42.38;101705.45;1668211;85;21025;-65
2021/10/02 10:11:09;;;;;;;9.63;5.67;;;;;;;15.32;42.74;101710.00;1661911;85;20992;-67
2021/10/02 10:13:36;;;;;;;18.75;8.53;;;;;;;15.42;42.54;101702.98;1663181;85;21084;-65
2021/10/02 10:16:09;;;;;;;19.40;6.75;;;;;;;15.40;41.76;101698.31;1653589;85;21562;-65
2021/10/02 10:18:38;;;;;;;28.80;8.03;;;;;;;15.35;42.27;101686.28;1660634;85;21024;-66
2021/10/02 10:21:11;;;;;;;8.98;4.55;;;;;;;15.38;42.55;101695.81;1664612;85;21051;-67
2021/10/02 10:23:43;;;;;;;7.53;5.25;;;;;;;15.36;41.92;101687.93;1664601;85;21018;-66
2021/10/02 10:26:15;;;;;;;5.17;4.40;;;;;;;15.36;42.13;101684.42;1661200;85;21666;-67
2021/10/02 10:28:46;;;;;;;12.35;5.87;;;;;;;15.42;42.15;101678.81;1661701;85;21625;-65
2021/10/02 10:31:20;;;;;;;5.95;4.95;;;;;;;15.46;42.14;101684.13;1659464;85;21588;-67
2021/10/02 10:33:52;;;;;;;7.42;5.65;;;;;;;15.43;42.31;101682.66;1658397;85;21062;-66
2021/10/02 10:36:22;;;;;;;5.55;5.05;;;;;;;15.42;42.78;101676.95;1665407;85;21063;-66
2021/10/02 10:38:50;;;;;;;6.35;5.40;;;;;;;15.48;42.72;101668.64;1664552;85;21634;-66
2021/10/02 10:41:20;;;;;;;8.18;5.35;;;;;;;15.56;42.70;101672.59;1665376;85;21032;-66
2021/10/02 10:43:48;;;;;;;7.70;4.40;;;;;;;15.63;42.62;101666.75;1665964;85;21070;-66
2021/10/02 10:46:19;;;;;;;4.28;3.87;;;;;;;15.72;42.37;101663.45;1662189;85;21054;-66
2021/10/02 10:48:45;;;;;;;7.75;5.20;;;;;;;15.73;41.29;101661.95;1664635;85;21498;-65
2021/10/02 10:51:14;;;;;;;4.90;4.40;;;;;;;15.70;41.73;101664.16;1671129;85;21004;-67
2021/10/02 10:53:44;;;;;;;3.70;3.40;;;;;;;15.70;41.25;101656.91;1673071;85;21016;-68
2021/10/02 10:56:14;;;;;;;22.93;7.30;;;;;;;15.63;41.19;101661.89;1664991;85;21054;-66
2021/10/02 10:58:40;;;;;;;16.57;5.55;;;;;;;15.60;41.49;101662.30;1670871;85;21123;-65
2021/10/02 11:01:09;;;;;;;15.53;5.55;;;;;;;15.61;40.77;101651.33;1667492;85;21542;-65
2021/10/02 11:03:47;;;;;;;17.27;6.12;;;;;;;15.59;40.68;101652.03;1669247;85;21051;-67
2021/10/02 11:06:18;;;;;;;22.30;7.17;;;;;;;15.61;41.05;101652.67;1660191;85;21084;-65
2021/10/02 11:09:05;;;;;;;8.83;4.25;;;;;;;15.64;40.81;101650.96;1664997;85;21598;-65
2021/10/02 11:11:53;;;;;;;5.15;3.37;;;;;;;15.61;40.51;101648.64;1664288;82;21062;-65
2021/10/02 11:14:42;;;;;;;6.17;4.62;;;;;;;15.60;40.32;101649.68;1661039;85;21599;-64
2021/10/02 11:17:08;;;;;;;5.70;4.85;;;;;;;15.53;40.34;101642.88;1649364;85;21089;-66
2021/10/02 11:19:44;;;;;;;8.13;4.10;;;;;;;15.53;40.75;101636.16;1666839;85;21643;-65
2021/10/02 11:22:37;;;;;;;7.35;4.78;;;;;;;15.56;40.65;101638.99;1653887;82;21046;-66
2021/10/02 11:25:20;;;;;;;10.40;4.58;;;;;;;15.61;40.74;101633.86;1575167;88;22457;-65
2021/10/02 11:27:47;;;;;;;7.35;4.58;;;;;;;15.67;41.33;101637.64;1659616;85;21076;-64
2021/10/02 11:30:18;;;;;;;5.80;4.10;;;;;;;15.77;40.95;101632.84;1660005;85;21024;-65
2021/10/02 11:32:47;;;;;;;5.08;4.65;;;;;;;15.81;39.83;101635.98;1666591;85;21067;-66
2021/10/02 11:35:20;;;;;;;7.12;5.00;;;;;;;15.84;39.96;101633.74;1664895;85;21553;-70
2021/10/02 11:37:58;;;;;;;4.47;3.90;;;;;;;15.88;39.81;101642.23;1659766;85;21018;-65
2021/10/02 11:40:43;;;;;;;4.05;3.75;;;;;;;15.86;39.69;101624.97;1664910;85;21039;-68
2021/10/02 11:43:23;;;;;;;26.48;7.80;;;;;;;15.83;39.79;101632.06;1659447;85;21142;-67
2021/10/02 11:45:57;;;;;;;10.88;5.70;;;;;;;15.78;39.70;101628.28;1619779;86;21568;-67
2021/10/02 11:48:43;;;;;;;26.77;10.05;;;;;;;15.66;39.51;101618.52;1626231;87;21144;-65
2021/10/02 11:51:20;;;;;;;6.97;4.50;;;;;;;15.60;39.77;101624.67;1652053;85;21192;-65
2021/10/02 11:53:51;;;;;;;8.58;3.90;;;;;;;15.55;40.11;101617.16;1663543;85;21052;-66
2021/10/02 11:56:22;;;;;;;4.85;3.60;;;;;;;15.55;40.14;101613.95;1646980;85;21093;-67
2021/10/02 11:58:52;;;;;;;2.60;2.40;;;;;;;15.56;40.09;101616.15;1663192;85;21015;-67
2021/10/02 12:01:28;;;;;;;3.90;3.10;;;;;;;15.55;39.35;101623.87;1648255;85;20998;-69
2021/10/02 12:04:05;;;;;;;3.90;2.95;;;;;;;15.57;39.18;101621.83;1662262;85;21591;-66
2021/10/02 12:06:37;;;;;;;4.00;2.80;;;;;;;15.58;39.12;101620.82;1651883;85;21024;-66
2021/10/02 12:09:07;;;;;;;5.20;2.98;;;;;;;15.59;38.89;101606.34;1664805;85;21090;-65
2021/10/02 12:11:46;;;;;;;18.30;6.37;;;;;;;15.62;39.17;101611.35;1667156;85;21102;-66
2021/10/02 12:14:22;;;;;;;7.40;3.10;;;;;;;15.59;38.86;101610.38;1678082;84;21554;-65
2021/10/02 12:16:52;;;;;;;;;;;;;;;15.54;38.38;101604.77;1665553;85;21624;-66
2021/10/02 12:19:22;;;;;;;12.07;3.67;;;;;;;15.48;38.64;101605.50;1662253;85;20186;-65
2021/10/02 12:22:04;;;;;;;10.78;4.05;;;;;;;15.43;38.90;101606.60;1611823;87;21045;-69
2021/10/02 12:24:39;;;;;;;34.70;9.95;;;;;;;15.46;38.90;101610.23;1603015;88;21093;-65
2021/10/02 12:27:15;;;;;;;5.03;2.67;;;;;;;15.49;38.86;101606.66;1665760;85;21036;-70
2021/10/02 12:29:48;;;;;;;4.10;2.42;;;;;;;15.52;38.26;101612.16;1663288;85;21078;-69
2021/10/02 12:32:20;;;;;;;19.77;6.65;;;;;;;15.48;38.33;101610.88;1665846;84;21167;-68
2021/10/02 12:34:57;;;;;;;8.13;2.65;;;;;;;15.47;38.33;101605.20;1661419;85;21071;-66
2021/10/02 12:37:31;;;;;;;9.05;3.72;;;;;;;15.47;38.45;101601.98;1659286;85;21091;-72
2021/10/02 12:40:04;;;;;;;6.80;2.33;;;;;;;15.49;38.58;101593.74;1668753;85;21060;-66
2021/10/02 12:42:45;;;;;;;7.97;2.52;;;;;;;15.50;38.15;101602.96;1660670;85;21059;-71
2021/10/02 12:45:38;;;;;;;2.00;1.90;;;;;;;15.50;38.30;101603.45;1656986;85;21105;-65
2021/10/02 12:48:06;;;;;;;6.62;2.25;;;;;;;15.48;38.17;101598.30;1650513;85;21119;-65
2021/10/02 12:50:39;;;;;;;2.00;1.85;;;;;;;15.46;38.27;101598.97;1667276;85;21044;-65
2021/10/02 12:53:10;;;;;;;3.22;1.65;;;;;;;15.41;37.96;101594.70;1649609;85;21143;-65
2021/10/02 12:55:36;;;;;;;2.10;1.37;;;;;;;15.36;37.97;101599.27;1663513;85;21570;-66
2021/10/02 12:58:03;;;;;;;2.85;1.80;;;;;;;15.34;38.35;101595.13;1655898;85;21105;-66
2021/10/02 13:00:32;;;;;;;10.05;3.52;;;;;;;15.30;38.47;101590.64;1642392;86;21015;-67
2021/10/02 13:03:04;;;;;;;10.38;3.22;;;;;;;15.31;38.80;101582.06;1667520;84;21007;-66
2021/10/02 13:05:34;;;;;;;4.78;2.83;;;;;;;15.29;38.97;101584.11;1678844;85;21069;-65
2021/10/02 13:08:08;;;;;;;4.92;3.42;;;;;;;15.28;39.07;101579.77;1665505;85;21495;-65
2021/10/02 13:10:38;;;;;;;2.80;2.42;;;;;;;15.29;39.29;101569.33;1678016;85;21152;-67
2021/10/02 13:13:16;;;;;;;4.17;3.08;;;;;;;15.28;39.28;101573.06;1668583;82;21047;-66